createdAt,value
2018-09-19T00:00:26.852Z,0
2018-09-19T00:01:28.236Z,0
2018-09-19T00:02:49.716Z,0
2018-09-19T00:03:51.100Z,0
2018-09-19T00:05:12.580Z,0
2018-09-19T00:06:13.964Z,0
2018-09-19T00:07:35.542Z,0
2018-09-19T00:08:36.926Z,0
2018-09-19T00:09:58.398Z,0
2018-09-19T00:10:59.780Z,0
2018-09-19T00:12:21.260Z,0
2018-09-19T00:13:22.636Z,0
2018-09-19T00:14:44.357Z,0
2018-09-19T00:15:45.741Z,0
2018-09-19T00:17:07.221Z,0
2018-09-19T00:18:08.604Z,0
2018-09-19T00:19:30.077Z,0
2018-09-19T00:20:31.462Z,0
2018-09-19T00:21:52.956Z,0
2018-09-19T00:22:54.333Z,0
2018-09-19T00:24:15.804Z,0
2018-09-19T00:25:17.189Z,0
2018-09-19T00:26:38.671Z,0
2018-09-19T00:27:40.052Z,0
2018-09-19T00:29:01.773Z,0
2018-09-19T00:30:03.161Z,0
2018-09-19T00:31:24.629Z,0
2018-09-19T00:32:26.013Z,0
2018-09-19T00:33:47.485Z,0
2018-09-19T00:34:48.869Z,0
2018-09-19T00:36:10.366Z,0
2018-09-19T00:37:11.749Z,0
2018-09-19T00:38:33.222Z,0
2018-09-19T00:39:34.605Z,0
2018-09-19T00:40:56.077Z,0
2018-09-19T00:41:57.461Z,0
2018-09-19T00:43:19.182Z,0
2018-09-19T00:44:20.565Z,0
2018-09-19T00:45:42.038Z,0
2018-09-19T00:46:43.423Z,0
2018-09-19T00:48:04.893Z,0
2018-09-19T00:49:06.277Z,0
2018-09-19T00:50:27.999Z,0
2018-09-19T00:51:29.381Z,0
2018-09-19T00:52:50.853Z,0
2018-09-19T00:53:52.237Z,0
2018-09-19T00:55:13.716Z,0
2018-09-19T00:56:15.095Z,0
2018-09-19T00:57:36.591Z,0
2018-09-19T00:58:37.976Z,0
2018-09-19T00:59:59.445Z,0
2018-09-19T01:01:00.831Z,0
2018-09-19T01:02:22.309Z,0
2018-09-19T01:03:23.723Z,0
2018-09-19T01:04:45.406Z,0
2018-09-19T01:05:46.789Z,0
2018-09-19T01:07:08.262Z,0
2018-09-19T01:08:09.647Z,0
2018-09-19T01:09:31.117Z,0
2018-09-19T01:10:32.505Z,0
2018-09-19T01:11:53.995Z,0
2018-09-19T01:12:55.373Z,0
2018-09-19T01:14:16.848Z,0
2018-09-19T01:15:18.230Z,0
2018-09-19T01:16:39.702Z,0
2018-09-19T01:17:41.088Z,0
2018-09-19T01:19:02.798Z,0
2018-09-19T01:20:04.182Z,0
2018-09-19T01:21:25.654Z,0
2018-09-19T01:22:27.047Z,0
2018-09-19T01:23:48.512Z,0
2018-09-19T01:24:49.894Z,0
2018-09-19T01:26:11.390Z,0
2018-09-19T01:27:12.774Z,0
2018-09-19T01:28:34.247Z,0
2018-09-19T01:29:35.630Z,0
2018-09-19T01:30:57.102Z,0
2018-09-19T01:31:58.487Z,0
2018-09-19T01:33:20.200Z,0
2018-09-19T01:34:21.583Z,0
2018-09-19T01:35:43.055Z,0
2018-09-19T01:36:44.442Z,0
2018-09-19T01:38:05.912Z,0
2018-09-19T01:39:07.295Z,0
2018-09-19T01:40:28.791Z,0
2018-09-19T01:41:30.189Z,0
2018-09-19T01:42:51.654Z,0
2018-09-19T01:43:53.042Z,0
2018-09-19T01:45:14.524Z,0
2018-09-19T01:46:15.895Z,0
2018-09-19T01:47:37.616Z,0
2018-09-19T01:48:39.005Z,0
2018-09-19T01:50:00.471Z,0
2018-09-19T01:51:01.858Z,0
2018-09-19T01:52:23.327Z,0
2018-09-19T01:53:24.711Z,0
2018-09-19T01:54:46.431Z,0
2018-09-19T01:55:47.815Z,0
2018-09-19T01:57:09.297Z,0
2018-09-19T01:58:10.679Z,0
2018-09-19T01:59:32.151Z,0
2018-09-19T02:00:33.537Z,0
2018-09-19T02:01:55.027Z,0
2018-09-19T02:02:56.436Z,0
2018-09-19T02:04:17.881Z,0
2018-09-19T02:05:19.263Z,0
2018-09-19T02:06:40.735Z,0
2018-09-19T02:07:42.119Z,0
2018-09-19T02:09:03.668Z,0
2018-09-19T02:10:05.004Z,0
2018-09-19T02:11:26.471Z,0
2018-09-19T02:12:27.860Z,0
2018-09-19T02:13:49.327Z,0
2018-09-19T02:14:50.711Z,0
2018-09-19T02:16:12.207Z,0
2018-09-19T02:17:13.603Z,0
2018-09-19T02:18:35.070Z,0
2018-09-19T02:19:36.448Z,0
2018-09-19T02:20:57.920Z,0
2018-09-19T02:21:59.307Z,0
2018-09-19T02:23:21.023Z,0
2018-09-19T02:24:22.407Z,0
2018-09-19T02:25:43.889Z,0
2018-09-19T02:26:45.276Z,0
2018-09-19T02:28:06.744Z,0
2018-09-19T02:29:08.128Z,0
2018-09-19T02:30:29.846Z,0
2018-09-19T02:31:31.227Z,0
2018-09-19T02:32:52.696Z,0
2018-09-19T02:33:54.079Z,0
2018-09-19T02:35:15.574Z,0
2018-09-19T02:36:16.944Z,0
2018-09-19T02:37:38.467Z,0
2018-09-19T02:38:39.839Z,0
2018-09-19T02:40:01.343Z,0
2018-09-19T02:41:02.703Z,0
2018-09-19T02:42:24.176Z,0
2018-09-19T02:43:25.567Z,0
2018-09-19T02:44:47.284Z,0
2018-09-19T02:45:48.664Z,0
2018-09-19T02:47:10.147Z,0
2018-09-19T02:48:11.530Z,0
2018-09-19T02:49:33.000Z,0
2018-09-19T02:50:34.384Z,0
2018-09-19T02:51:55.880Z,0
2018-09-19T02:52:57.269Z,0
2018-09-19T02:54:18.736Z,0
2018-09-19T02:55:20.128Z,0
2018-09-19T02:56:41.592Z,0
2018-09-19T02:57:42.980Z,0
2018-09-19T02:59:04.696Z,0
2018-09-19T03:00:06.080Z,0
2018-09-19T03:01:27.560Z,0
2018-09-19T03:02:28.955Z,0
2018-09-19T03:03:50.416Z,0
2018-09-19T03:04:51.808Z,0
2018-09-19T03:06:13.305Z,0
2018-09-19T03:07:14.688Z,0
2018-09-19T03:08:36.163Z,0
2018-09-19T03:09:37.547Z,0
2018-09-19T03:10:59.025Z,0
2018-09-19T03:12:00.408Z,0
2018-09-19T03:13:22.130Z,0
2018-09-19T03:14:23.505Z,0
2018-09-19T03:15:44.978Z,0
2018-09-19T03:16:46.375Z,0
2018-09-19T03:18:07.844Z,0
2018-09-19T03:19:09.225Z,0
2018-09-19T03:20:30.714Z,0
2018-09-19T03:21:32.100Z,0
2018-09-19T03:22:53.573Z,0
2018-09-19T03:23:54.953Z,0
2018-09-19T03:25:16.426Z,0
2018-09-19T03:26:17.810Z,0
2018-09-19T03:27:39.529Z,0
2018-09-19T03:28:40.913Z,0
2018-09-19T03:30:02.404Z,0
2018-09-19T03:31:03.771Z,0
2018-09-19T03:32:25.242Z,0
2018-09-19T03:33:26.633Z,0
2018-09-19T03:34:48.346Z,0
2018-09-19T03:35:49.730Z,0
2018-09-19T03:37:11.204Z,0
2018-09-19T03:38:12.587Z,0
2018-09-19T03:39:34.061Z,0
2018-09-19T03:40:35.451Z,0
2018-09-19T03:41:56.938Z,0
2018-09-19T03:42:58.324Z,0
2018-09-19T03:44:19.794Z,0
2018-09-19T03:45:21.179Z,0
2018-09-19T03:46:42.650Z,0
2018-09-19T03:47:44.037Z,0
2018-09-19T03:49:05.530Z,0
2018-09-19T03:50:06.914Z,0
2018-09-19T03:51:28.388Z,0
2018-09-19T03:52:29.770Z,0
2018-09-19T03:53:51.249Z,0
2018-09-19T03:54:52.630Z,0
2018-09-19T03:56:14.346Z,0
2018-09-19T03:57:15.749Z,0
2018-09-19T03:58:37.213Z,0
2018-09-19T03:59:38.594Z,0
2018-09-19T04:01:00.066Z,0
2018-09-19T04:02:01.451Z,0
2018-09-19T04:03:23.170Z,0
2018-09-19T04:04:24.554Z,0
2018-09-19T04:05:46.029Z,0
2018-09-19T04:06:47.410Z,0
2018-09-19T04:08:08.901Z,0
2018-09-19T04:09:10.267Z,0
2018-09-19T04:10:31.987Z,0
2018-09-19T04:11:33.370Z,0
2018-09-19T04:12:54.843Z,0
2018-09-19T04:13:56.226Z,0
2018-09-19T04:15:17.699Z,0
2018-09-19T04:16:19.084Z,0
2018-09-19T04:17:40.637Z,0
2018-09-19T04:18:41.931Z,0
2018-09-19T04:20:03.404Z,0
2018-09-19T04:21:04.779Z,0
2018-09-19T04:22:26.261Z,0
2018-09-19T04:23:27.648Z,0
2018-09-19T04:24:49.138Z,0
2018-09-19T04:25:50.522Z,0
2018-09-19T04:27:12.008Z,0
2018-09-19T04:28:13.379Z,0
2018-09-19T04:29:34.856Z,0
2018-09-19T04:30:36.240Z,0
2018-09-19T04:31:57.731Z,0
2018-09-19T04:32:59.118Z,0
2018-09-19T04:34:20.587Z,0
2018-09-19T04:35:21.971Z,0
2018-09-19T04:36:43.445Z,0
2018-09-19T04:37:44.832Z,0
2018-09-19T04:39:06.539Z,0
2018-09-19T04:40:07.925Z,0
2018-09-19T04:41:29.403Z,0
2018-09-19T04:42:30.789Z,0
2018-09-19T04:43:52.262Z,0
2018-09-19T04:44:53.663Z,0
2018-09-19T04:46:15.139Z,0
2018-09-19T04:47:16.524Z,0
2018-09-19T04:48:38.002Z,0
2018-09-19T04:49:39.381Z,0
2018-09-19T04:51:00.853Z,0
2018-09-19T04:52:02.238Z,0
2018-09-19T04:53:23.743Z,0
2018-09-19T04:54:25.132Z,0
2018-09-19T04:55:46.590Z,0
2018-09-19T04:56:47.972Z,0
2018-09-19T04:58:09.445Z,0
2018-09-19T04:59:10.837Z,0
2018-09-19T05:00:32.324Z,4
2018-09-19T05:01:33.716Z,4
2018-09-19T05:02:55.182Z,4
2018-09-19T05:03:56.564Z,0
2018-09-19T05:05:18.040Z,4
2018-09-19T05:06:19.425Z,4
2018-09-19T05:07:40.920Z,8
2018-09-19T05:08:42.304Z,8
2018-09-19T05:10:03.773Z,4
2018-09-19T05:11:05.156Z,8
2018-09-19T05:12:26.639Z,12
2018-09-19T05:13:28.022Z,8
2018-09-19T05:14:49.508Z,12
2018-09-19T05:15:50.899Z,12
2018-09-19T05:17:12.364Z,12
2018-09-19T05:18:13.750Z,16
2018-09-19T05:19:35.221Z,16
2018-09-19T05:20:36.604Z,16
2018-09-19T05:21:58.104Z,20
2018-09-19T05:22:59.484Z,24
2018-09-19T05:24:20.965Z,24
2018-09-19T05:25:22.352Z,24
2018-09-19T05:26:43.821Z,28
2018-09-19T05:27:45.207Z,28
2018-09-19T05:29:06.702Z,32
2018-09-19T05:30:08.086Z,32
2018-09-19T05:31:29.595Z,36
2018-09-19T05:32:30.941Z,36
2018-09-19T05:33:52.421Z,36
2018-09-19T05:34:53.811Z,36
2018-09-19T05:36:15.301Z,40
2018-09-19T05:37:16.685Z,40
2018-09-19T05:38:38.157Z,48
2018-09-19T05:39:39.541Z,48
2018-09-19T05:41:01.013Z,52
2018-09-19T05:42:02.397Z,52
2018-09-19T05:43:24.117Z,60
2018-09-19T05:44:25.501Z,60
2018-09-19T05:45:46.984Z,64
2018-09-19T05:46:48.367Z,64
2018-09-19T05:48:09.837Z,72
2018-09-19T05:49:11.222Z,72
2018-09-19T05:50:32.717Z,80
2018-09-19T05:51:34.104Z,80
2018-09-19T05:52:55.581Z,84
2018-09-19T05:53:56.965Z,84
2018-09-19T05:55:18.439Z,88
2018-09-19T05:56:19.821Z,92
2018-09-19T05:57:41.470Z,96
2018-09-19T05:58:42.850Z,100
2018-09-19T06:00:04.326Z,100
2018-09-19T06:01:05.710Z,108
2018-09-19T06:02:27.181Z,116
2018-09-19T06:03:28.565Z,124
2018-09-19T06:04:50.075Z,128
2018-09-19T06:05:51.448Z,132
2018-09-19T06:07:12.927Z,140
2018-09-19T06:08:14.310Z,144
2018-09-19T06:09:35.790Z,148
2018-09-19T06:10:37.173Z,152
2018-09-19T06:11:58.670Z,152
2018-09-19T06:13:00.159Z,148
2018-09-19T06:14:21.494Z,156
2018-09-19T06:15:22.877Z,156
2018-09-19T06:16:44.355Z,156
2018-09-19T06:17:45.726Z,156
2018-09-19T06:19:07.231Z,156
2018-09-19T06:20:08.622Z,156
2018-09-19T06:21:30.103Z,156
2018-09-19T06:22:31.487Z,164
2018-09-19T06:23:52.960Z,172
2018-09-19T06:24:54.342Z,172
2018-09-19T06:26:15.839Z,176
2018-09-19T06:27:17.230Z,176
2018-09-19T06:28:38.702Z,180
2018-09-19T06:29:40.115Z,176
2018-09-19T06:31:01.558Z,180
2018-09-19T06:32:02.942Z,176
2018-09-19T06:33:24.472Z,180
2018-09-19T06:34:25.822Z,180
2018-09-19T06:35:47.271Z,184
2018-09-19T06:36:48.676Z,184
2018-09-19T06:38:10.134Z,184
2018-09-19T06:39:11.518Z,184
2018-09-19T06:40:33.043Z,180
2018-09-19T06:41:34.490Z,180
2018-09-19T06:42:55.856Z,184
2018-09-19T06:43:57.239Z,184
2018-09-19T06:45:18.718Z,188
2018-09-19T06:46:20.111Z,188
2018-09-19T06:47:41.607Z,184
2018-09-19T06:48:42.999Z,184
2018-09-19T06:50:04.473Z,188
2018-09-19T06:51:05.855Z,192
2018-09-19T06:52:27.392Z,184
2018-09-19T06:53:28.687Z,180
2018-09-19T06:54:50.184Z,192
2018-09-19T06:55:51.570Z,200
2018-09-19T06:57:13.048Z,200
2018-09-19T06:58:14.431Z,204
2018-09-19T06:59:35.932Z,204
2018-09-19T07:00:37.255Z,204
2018-09-19T07:01:58.753Z,204
2018-09-19T07:03:00.135Z,204
2018-09-19T07:04:21.607Z,208
2018-09-19T07:05:22.994Z,208
2018-09-19T07:06:44.471Z,208
2018-09-19T07:07:45.859Z,208
2018-09-19T07:09:07.351Z,208
2018-09-19T07:10:08.737Z,208
2018-09-19T07:11:30.208Z,204
2018-09-19T07:12:31.600Z,208
2018-09-19T07:13:53.071Z,208
2018-09-19T07:14:54.458Z,208
2018-09-19T07:16:15.953Z,212
2018-09-19T07:17:17.338Z,208
2018-09-19T07:18:38.809Z,212
2018-09-19T07:19:40.198Z,212
2018-09-19T07:21:01.674Z,212
2018-09-19T07:22:03.056Z,212
2018-09-19T07:23:24.601Z,212
2018-09-19T07:24:25.985Z,212
2018-09-19T07:25:47.456Z,212
2018-09-19T07:26:48.848Z,212
2018-09-19T07:28:10.320Z,212
2018-09-19T07:29:11.707Z,220
2018-09-19T07:30:33.427Z,220
2018-09-19T07:31:34.809Z,224
2018-09-19T07:32:56.281Z,224
2018-09-19T07:33:57.664Z,224
2018-09-19T07:35:19.138Z,228
2018-09-19T07:36:20.520Z,228
2018-09-19T07:37:42.017Z,232
2018-09-19T07:38:43.401Z,232
2018-09-19T07:40:04.889Z,232
2018-09-19T07:41:06.264Z,240
2018-09-19T07:42:27.736Z,244
2018-09-19T07:43:29.120Z,244
2018-09-19T07:44:50.618Z,252
2018-09-19T07:45:52.000Z,248
2018-09-19T07:47:13.480Z,244
2018-09-19T07:48:14.864Z,236
2018-09-19T07:49:36.347Z,232
2018-09-19T07:50:37.731Z,232
2018-09-19T07:51:59.230Z,232
2018-09-19T07:53:00.609Z,232
2018-09-19T07:54:22.128Z,232
2018-09-19T07:55:23.521Z,236
2018-09-19T07:56:44.928Z,232
2018-09-19T07:57:46.297Z,236
2018-09-19T07:59:07.795Z,236
2018-09-19T08:00:09.185Z,236
2018-09-19T08:01:30.665Z,236
2018-09-19T08:02:32.049Z,236
2018-09-19T08:03:53.520Z,232
2018-09-19T08:04:54.916Z,232
2018-09-19T08:06:16.402Z,232
2018-09-19T08:07:17.791Z,236
2018-09-19T08:08:39.273Z,240
2018-09-19T08:09:40.653Z,240
2018-09-19T08:11:02.131Z,240
2018-09-19T08:12:03.518Z,244
2018-09-19T08:13:25.010Z,244
2018-09-19T08:14:26.402Z,244
2018-09-19T08:15:47.896Z,248
2018-09-19T08:16:49.298Z,248
2018-09-19T08:18:10.705Z,252
2018-09-19T08:19:12.092Z,252
2018-09-19T08:20:33.585Z,260
2018-09-19T08:21:34.971Z,276
2018-09-19T08:22:56.450Z,376
2018-09-19T08:23:57.833Z,500
2018-09-19T08:25:19.313Z,536
2018-09-19T08:26:20.699Z,516
2018-09-19T08:27:42.421Z,512
2018-09-19T08:28:43.809Z,524
2018-09-19T08:30:05.282Z,488
2018-09-19T08:31:06.673Z,496
2018-09-19T08:32:28.153Z,504
2018-09-19T08:33:29.540Z,448
2018-09-19T08:34:51.033Z,408
2018-09-19T08:35:52.418Z,348
2018-09-19T08:37:13.897Z,268
2018-09-19T08:38:15.284Z,264
2018-09-19T08:39:36.760Z,268
2018-09-19T08:40:38.149Z,264
2018-09-19T08:41:59.738Z,264
2018-09-19T08:43:01.122Z,268
2018-09-19T08:44:22.603Z,268
2018-09-19T08:45:23.988Z,268
2018-09-19T08:46:45.465Z,272
2018-09-19T08:47:46.850Z,276
2018-09-19T08:49:08.346Z,280
2018-09-19T08:50:09.729Z,280
2018-09-19T08:51:31.209Z,280
2018-09-19T08:52:32.593Z,280
2018-09-19T08:53:54.073Z,288
2018-09-19T08:54:55.458Z,292
2018-09-19T08:56:17.178Z,296
2018-09-19T08:57:18.570Z,292
2018-09-19T08:58:40.049Z,300
2018-09-19T08:59:41.441Z,300
2018-09-19T09:01:02.921Z,300
2018-09-19T09:02:04.305Z,304
2018-09-19T09:03:25.801Z,304
2018-09-19T09:04:27.189Z,304
2018-09-19T09:05:48.665Z,300
2018-09-19T09:06:50.053Z,296
2018-09-19T09:08:11.523Z,296
2018-09-19T09:09:12.913Z,292
2018-09-19T09:10:34.638Z,288
2018-09-19T09:11:36.017Z,288
2018-09-19T09:12:57.500Z,288
2018-09-19T09:13:58.882Z,284
2018-09-19T09:15:20.359Z,284
2018-09-19T09:16:21.745Z,280
2018-09-19T09:17:43.249Z,280
2018-09-19T09:18:44.629Z,284
2018-09-19T09:20:06.175Z,280
2018-09-19T09:21:07.458Z,284
2018-09-19T09:22:28.930Z,284
2018-09-19T09:23:30.324Z,288
2018-09-19T09:24:51.818Z,284
2018-09-19T09:25:53.203Z,280
2018-09-19T09:27:14.694Z,280
2018-09-19T09:28:16.066Z,276
2018-09-19T09:29:37.546Z,276
2018-09-19T09:30:38.940Z,272
2018-09-19T09:32:00.427Z,280
2018-09-19T09:33:01.813Z,276
2018-09-19T09:34:23.321Z,284
2018-09-19T09:35:24.634Z,280
2018-09-19T09:36:46.185Z,284
2018-09-19T09:37:47.508Z,284
2018-09-19T09:39:09.227Z,280
2018-09-19T09:40:10.615Z,288
2018-09-19T09:41:32.098Z,284
2018-09-19T09:42:33.490Z,284
2018-09-19T09:43:54.955Z,288
2018-09-19T09:44:56.346Z,284
2018-09-19T09:46:18.077Z,288
2018-09-19T09:47:19.461Z,288
2018-09-19T09:48:40.930Z,292
2018-09-19T09:49:42.322Z,296
2018-09-19T09:51:03.802Z,296
2018-09-19T09:52:05.186Z,300
2018-09-19T09:53:26.957Z,300
2018-09-19T09:54:28.268Z,304
2018-09-19T09:55:49.747Z,308
2018-09-19T09:56:51.141Z,316
2018-09-19T09:58:12.619Z,320
2018-09-19T09:59:14.003Z,264
2018-09-19T10:00:35.500Z,396
2018-09-19T10:01:36.884Z,460
2018-09-19T10:02:58.365Z,408
2018-09-19T10:03:59.756Z,300
2018-09-19T10:05:21.243Z,492
2018-09-19T10:06:22.636Z,608
2018-09-19T10:07:44.107Z,604
2018-09-19T10:08:45.491Z,612
2018-09-19T10:10:06.976Z,808
2018-09-19T10:11:08.355Z,724
2018-09-19T10:12:29.837Z,784
2018-09-19T10:13:31.254Z,588
2018-09-19T10:14:52.716Z,376
2018-09-19T10:15:54.100Z,632
2018-09-19T10:17:15.580Z,824
2018-09-19T10:18:16.964Z,648
2018-09-19T10:19:38.444Z,600
2018-09-19T10:20:39.829Z,752
2018-09-19T10:22:01.549Z,580
2018-09-19T10:23:02.940Z,548
2018-09-19T10:24:24.420Z,568
2018-09-19T10:25:25.806Z,528
2018-09-19T10:26:47.284Z,628
2018-09-19T10:27:48.668Z,644
2018-09-19T10:29:10.164Z,724
2018-09-19T10:30:11.556Z,784
2018-09-19T10:31:33.045Z,720
2018-09-19T10:32:34.429Z,692
2018-09-19T10:33:55.924Z,696
2018-09-19T10:34:57.312Z,688
2018-09-19T10:36:18.806Z,692
2018-09-19T10:37:20.189Z,688
2018-09-19T10:38:41.661Z,580
2018-09-19T10:39:43.053Z,536
2018-09-19T10:41:04.536Z,616
2018-09-19T10:42:05.917Z,564
2018-09-19T10:43:27.636Z,712
2018-09-19T10:44:29.031Z,620
2018-09-19T10:45:50.509Z,520
2018-09-19T10:46:51.901Z,484
2018-09-19T10:48:13.381Z,288
2018-09-19T10:49:14.770Z,292
2018-09-19T10:50:36.261Z,320
2018-09-19T10:51:37.644Z,356
2018-09-19T10:52:59.125Z,380
2018-09-19T10:54:00.520Z,468
2018-09-19T10:55:21.989Z,472
2018-09-19T10:56:23.381Z,368
2018-09-19T10:57:45.102Z,360
2018-09-19T10:58:46.494Z,376
2018-09-19T11:00:07.973Z,428
2018-09-19T11:01:09.359Z,408
2018-09-19T11:02:30.837Z,456
2018-09-19T11:03:32.221Z,412
2018-09-19T11:04:53.719Z,316
2018-09-19T11:05:55.101Z,324
2018-09-19T11:07:16.581Z,432
2018-09-19T11:08:17.967Z,412
2018-09-19T11:09:39.461Z,488
2018-09-19T11:10:40.829Z,368
2018-09-19T11:12:02.333Z,364
2018-09-19T11:13:03.709Z,384
2018-09-19T11:14:25.189Z,412
2018-09-19T11:15:26.573Z,500
2018-09-19T11:16:48.053Z,492
2018-09-19T11:17:49.437Z,532
2018-09-19T11:19:11.173Z,444
2018-09-19T11:20:12.549Z,412
2018-09-19T11:21:34.033Z,548
2018-09-19T11:22:35.425Z,660
2018-09-19T11:23:56.901Z,712
2018-09-19T11:24:58.285Z,632
2018-09-19T11:26:19.823Z,460
2018-09-19T11:27:21.189Z,468
2018-09-19T11:28:42.670Z,412
2018-09-19T11:29:44.061Z,528
2018-09-19T11:31:05.541Z,692
2018-09-19T11:32:06.933Z,512
2018-09-19T11:33:28.476Z,376
2018-09-19T11:34:29.829Z,412
2018-09-19T11:35:51.309Z,304
2018-09-19T11:36:52.702Z,252
2018-09-19T11:38:14.174Z,296
2018-09-19T11:39:15.558Z,308
2018-09-19T11:40:37.286Z,304
2018-09-19T11:41:38.678Z,456
2018-09-19T11:43:00.158Z,452
2018-09-19T11:44:01.546Z,328
2018-09-19T11:45:23.023Z,276
2018-09-19T11:46:24.414Z,360
2018-09-19T11:47:46.135Z,428
2018-09-19T11:48:47.530Z,320
2018-09-19T11:50:09.007Z,316
2018-09-19T11:51:10.391Z,276
2018-09-19T11:52:31.863Z,288
2018-09-19T11:53:33.255Z,252
2018-09-19T11:54:54.751Z,312
2018-09-19T11:55:56.143Z,336
2018-09-19T11:57:17.623Z,424
2018-09-19T11:58:19.015Z,488
2018-09-19T11:59:40.497Z,500
2018-09-19T12:00:41.879Z,444
2018-09-19T12:02:03.399Z,376
2018-09-19T12:03:04.767Z,496
2018-09-19T12:04:26.247Z,516
2018-09-19T12:05:27.631Z,504
2018-09-19T12:06:49.111Z,344
2018-09-19T12:07:50.496Z,336
2018-09-19T12:09:12.135Z,316
2018-09-19T12:10:13.528Z,260
2018-09-19T12:11:35.007Z,300
2018-09-19T12:12:36.392Z,312
2018-09-19T12:13:57.863Z,316
2018-09-19T12:14:59.255Z,300
2018-09-19T12:16:20.975Z,260
2018-09-19T12:17:22.367Z,300
2018-09-19T12:18:43.848Z,304
2018-09-19T12:19:45.240Z,332
2018-09-19T12:21:06.719Z,356
2018-09-19T12:22:08.104Z,312
2018-09-19T12:23:29.599Z,300
2018-09-19T12:24:30.987Z,276
2018-09-19T12:25:52.464Z,280
2018-09-19T12:26:53.855Z,260
2018-09-19T12:28:15.327Z,268
2018-09-19T12:29:16.719Z,304
2018-09-19T12:30:38.216Z,420
2018-09-19T12:31:39.600Z,484
2018-09-19T12:33:01.079Z,588
2018-09-19T12:34:02.464Z,668
2018-09-19T12:35:23.952Z,576
2018-09-19T12:36:25.336Z,524
2018-09-19T12:37:46.975Z,444
2018-09-19T12:38:48.367Z,356
2018-09-19T12:40:09.840Z,360
2018-09-19T12:41:11.234Z,416
2018-09-19T12:42:32.711Z,364
2018-09-19T12:43:34.096Z,500
2018-09-19T12:44:55.824Z,480
2018-09-19T12:45:57.224Z,500
2018-09-19T12:47:18.703Z,572
2018-09-19T12:48:20.088Z,504
2018-09-19T12:49:41.560Z,464
2018-09-19T12:50:42.955Z,360
2018-09-19T12:52:04.793Z,296
2018-09-19T12:53:06.184Z,472
2018-09-19T12:54:27.672Z,436
2018-09-19T12:55:29.064Z,280
2018-09-19T12:56:50.552Z,276
2018-09-19T12:57:51.939Z,228
2018-09-19T12:59:13.432Z,220
2018-09-19T13:00:14.817Z,248
2018-09-19T13:01:36.296Z,284
2018-09-19T13:02:37.681Z,280
2018-09-19T13:03:59.152Z,260
2018-09-19T13:05:00.553Z,256
2018-09-19T13:06:22.103Z,260
2018-09-19T13:07:23.440Z,264
2018-09-19T13:08:44.943Z,260
2018-09-19T13:09:46.313Z,296
2018-09-19T13:11:07.784Z,304
2018-09-19T13:12:09.177Z,360
2018-09-19T13:13:30.896Z,468
2018-09-19T13:14:32.289Z,392
2018-09-19T13:15:53.777Z,312
2018-09-19T13:16:55.161Z,348
2018-09-19T13:18:16.640Z,324
2018-09-19T13:19:18.026Z,264
2018-09-19T13:20:39.553Z,264
2018-09-19T13:21:40.945Z,264
2018-09-19T13:23:02.425Z,272
2018-09-19T13:24:03.809Z,280
2018-09-19T13:25:25.281Z,296
2018-09-19T13:26:26.674Z,288
2018-09-19T13:27:48.177Z,324
2018-09-19T13:28:49.561Z,284
2018-09-19T13:30:11.042Z,288
2018-09-19T13:31:12.425Z,280
2018-09-19T13:32:33.905Z,280
2018-09-19T13:33:35.297Z,292
2018-09-19T13:34:57.020Z,336
2018-09-19T13:35:58.410Z,328
2018-09-19T13:37:19.929Z,276
2018-09-19T13:38:21.330Z,280
2018-09-19T13:39:42.826Z,304
2018-09-19T13:40:44.210Z,284
2018-09-19T13:42:05.857Z,296
2018-09-19T13:43:07.242Z,264
2018-09-19T13:44:28.714Z,324
2018-09-19T13:45:30.107Z,388
2018-09-19T13:46:51.586Z,388
2018-09-19T13:47:52.979Z,336
2018-09-19T13:49:14.466Z,352
2018-09-19T13:50:15.850Z,284
2018-09-19T13:51:37.330Z,284
2018-09-19T13:52:38.714Z,268
2018-09-19T13:54:00.202Z,264
2018-09-19T13:55:01.586Z,260
2018-09-19T13:56:23.314Z,256
2018-09-19T13:57:24.706Z,260
2018-09-19T13:58:46.239Z,256
2018-09-19T13:59:47.572Z,260
2018-09-19T14:01:09.050Z,256
2018-09-19T14:02:10.434Z,252
2018-09-19T14:03:32.154Z,264
2018-09-19T14:04:33.546Z,272
2018-09-19T14:05:55.027Z,260
2018-09-19T14:06:56.421Z,256
2018-09-19T14:08:17.899Z,256
2018-09-19T14:09:19.284Z,264
2018-09-19T14:10:40.778Z,200
2018-09-19T14:11:42.194Z,256
2018-09-19T14:13:03.646Z,260
2018-09-19T14:14:05.027Z,264
2018-09-19T14:15:26.510Z,260
2018-09-19T14:16:27.898Z,260
2018-09-19T14:17:49.618Z,256
2018-09-19T14:18:51.011Z,260
2018-09-19T14:20:12.491Z,260
2018-09-19T14:21:13.924Z,264
2018-09-19T14:22:35.356Z,264
2018-09-19T14:23:36.746Z,264
2018-09-19T14:24:58.474Z,256
2018-09-19T14:25:59.867Z,260
2018-09-19T14:27:21.347Z,256
2018-09-19T14:28:22.761Z,260
2018-09-19T14:29:44.212Z,268
2018-09-19T14:30:45.595Z,252
2018-09-19T14:32:07.315Z,200
2018-09-19T14:33:08.707Z,248
2018-09-19T14:34:30.179Z,252
2018-09-19T14:35:31.630Z,252
2018-09-19T14:36:53.020Z,252
2018-09-19T14:37:54.403Z,244
2018-09-19T14:39:16.124Z,220
2018-09-19T14:40:17.525Z,220
2018-09-19T14:41:39.004Z,228
2018-09-19T14:42:40.388Z,228
2018-09-19T14:44:01.867Z,208
2018-09-19T14:45:03.263Z,192
2018-09-19T14:46:24.756Z,204
2018-09-19T14:47:26.140Z,224
2018-09-19T14:48:47.674Z,232
2018-09-19T14:49:49.012Z,232
2018-09-19T14:51:10.492Z,252
2018-09-19T14:52:11.877Z,256
2018-09-19T14:53:33.372Z,256
2018-09-19T14:54:34.798Z,280
2018-09-19T14:55:56.197Z,296
2018-09-19T14:56:57.590Z,300
2018-09-19T14:58:19.077Z,304
2018-09-19T14:59:20.461Z,320
2018-09-19T15:00:41.965Z,320
2018-09-19T15:01:43.359Z,324
2018-09-19T15:03:04.836Z,320
2018-09-19T15:04:06.229Z,312
2018-09-19T15:05:27.708Z,300
2018-09-19T15:06:29.104Z,292
2018-09-19T15:07:50.601Z,304
2018-09-19T15:08:51.981Z,276
2018-09-19T15:10:13.453Z,264
2018-09-19T15:11:14.845Z,268
2018-09-19T15:12:36.325Z,260
2018-09-19T15:13:37.709Z,252
2018-09-19T15:14:59.205Z,248
2018-09-19T15:16:00.589Z,240
2018-09-19T15:17:22.069Z,236
2018-09-19T15:18:23.470Z,240
2018-09-19T15:19:44.959Z,236
2018-09-19T15:20:46.349Z,232
2018-09-19T15:22:08.069Z,232
2018-09-19T15:23:09.461Z,224
2018-09-19T15:24:30.958Z,224
2018-09-19T15:25:32.350Z,192
2018-09-19T15:26:53.830Z,220
2018-09-19T15:27:55.229Z,220
2018-09-19T15:29:16.952Z,216
2018-09-19T15:30:18.342Z,220
2018-09-19T15:31:39.814Z,220
2018-09-19T15:32:41.207Z,216
2018-09-19T15:34:02.686Z,216
2018-09-19T15:35:04.078Z,220
2018-09-19T15:36:25.582Z,216
2018-09-19T15:37:26.974Z,216
2018-09-19T15:38:48.454Z,208
2018-09-19T15:39:49.846Z,192
2018-09-19T15:41:11.318Z,172
2018-09-19T15:42:12.709Z,164
2018-09-19T15:43:34.459Z,168
2018-09-19T15:44:35.822Z,192
2018-09-19T15:45:57.310Z,172
2018-09-19T15:46:58.693Z,180
2018-09-19T15:48:20.232Z,176
2018-09-19T15:49:21.585Z,172
2018-09-19T15:50:43.069Z,180
2018-09-19T15:51:44.453Z,184
2018-09-19T15:53:05.934Z,184
2018-09-19T15:54:07.326Z,188
2018-09-19T15:55:28.855Z,196
2018-09-19T15:56:30.198Z,216
2018-09-19T15:57:51.732Z,228
2018-09-19T15:58:53.046Z,232
2018-09-19T16:00:14.526Z,240
2018-09-19T16:01:15.937Z,236
2018-09-19T16:02:37.398Z,232
2018-09-19T16:03:38.790Z,240
2018-09-19T16:05:00.511Z,248
2018-09-19T16:06:01.952Z,248
2018-09-19T16:07:23.382Z,240
2018-09-19T16:08:24.775Z,236
2018-09-19T16:09:46.254Z,232
2018-09-19T16:10:47.647Z,232
2018-09-19T16:12:09.150Z,220
2018-09-19T16:13:10.535Z,200
2018-09-19T16:14:32.022Z,164
2018-09-19T16:15:33.407Z,160
2018-09-19T16:16:54.886Z,144
2018-09-19T16:17:56.270Z,148
2018-09-19T16:19:17.767Z,148
2018-09-19T16:20:19.151Z,156
2018-09-19T16:21:40.631Z,148
2018-09-19T16:22:42.015Z,140
2018-09-19T16:24:03.487Z,144
2018-09-19T16:25:04.871Z,140
2018-09-19T16:26:26.374Z,148
2018-09-19T16:27:27.768Z,148
2018-09-19T16:28:49.252Z,148
2018-09-19T16:29:50.690Z,144
2018-09-19T16:31:12.071Z,136
2018-09-19T16:32:13.463Z,140
2018-09-19T16:33:35.183Z,140
2018-09-19T16:34:36.577Z,116
2018-09-19T16:35:58.047Z,104
2018-09-19T16:36:59.440Z,100
2018-09-19T16:38:20.919Z,92
2018-09-19T16:39:22.305Z,96
2018-09-19T16:40:43.804Z,96
2018-09-19T16:41:45.183Z,104
2018-09-19T16:43:06.664Z,120
2018-09-19T16:44:08.055Z,112
2018-09-19T16:45:29.576Z,120
2018-09-19T16:46:30.911Z,124